sensor_id;sensor_type;location;lat;lon;timestamp;pressure;altitude;pressure_sealevel;temperature;humidity
62124;BME280;48110;47.532;19.078;2024-02-14T00:02:53;100833.53;;;4.40;100.00
62124;BME280;48110;47.532;19.078;2024-02-14T00:05:56;100825.66;;;4.40;100.00
62124;BME280;48110;47.532;19.078;2024-02-14T00:08:59;100824.88;;;4.27;100.00
62124;BME280;48110;47.532;19.078;2024-02-14T00:12:02;100833.34;;;4.19;100.00
62124;BME280;48110;47.532;19.078;2024-02-14T00:15:06;100819.84;;;4.13;100.00
62124;BME280;48110;47.532;19.078;2024-02-14T00:18:10;100821.56;;;4.36;100.00
62124;BME280;48110;47.532;19.078;2024-02-14T00:21:13;100831.69;;;4.41;100.00
62124;BME280;48110;47.532;19.078;2024-02-14T00:24:16;100828.72;;;4.34;100.00
62124;BME280;48110;47.532;19.078;2024-02-14T00:27:20;100837.75;;;4.19;100.00
62124;BME280;48110;47.532;19.078;2024-02-14T00:30:24;100845.75;;;4.17;100.00
62124;BME280;48110;47.532;19.078;2024-02-14T00:33:29;100843.31;;;4.03;100.00
62124;BME280;48110;47.532;19.078;2024-02-14T00:36:32;100839.41;;;4.09;100.00
62124;BME280;48110;47.532;19.078;2024-02-14T00:39:35;100844.63;;;3.98;100.00
62124;BME280;48110;47.532;19.078;2024-02-14T00:42:38;100842.78;;;4.11;100.00
62124;BME280;48110;47.532;19.078;2024-02-14T00:45:41;100851.63;;;4.32;100.00
62124;BME280;48110;47.532;19.078;2024-02-14T00:48:44;100848.28;;;4.19;100.00
62124;BME280;48110;47.532;19.078;2024-02-14T00:51:47;100848.13;;;4.09;100.00
62124;BME280;48110;47.532;19.078;2024-02-14T00:54:50;100853.03;;;4.14;100.00
62124;BME280;48110;47.532;19.078;2024-02-14T00:57:53;100849.72;;;3.88;100.00
62124;BME280;48110;47.532;19.078;2024-02-14T01:00:57;100857.91;;;3.72;100.00
62124;BME280;48110;47.532;19.078;2024-02-14T01:04:00;100872.62;;;3.86;100.00
62124;BME280;48110;47.532;19.078;2024-02-14T01:07:03;100870.19;;;3.72;100.00
62124;BME280;48110;47.532;19.078;2024-02-14T01:10:07;100869.00;;;3.76;100.00
62124;BME280;48110;47.532;19.078;2024-02-14T01:13:10;100866.72;;;3.71;100.00
62124;BME280;48110;47.532;19.078;2024-02-14T01:16:14;100867.25;;;3.87;100.00
62124;BME280;48110;47.532;19.078;2024-02-14T01:19:17;100869.00;;;3.76;100.00
62124;BME280;48110;47.532;19.078;2024-02-14T01:22:21;100861.84;;;3.78;100.00
62124;BME280;48110;47.532;19.078;2024-02-14T01:25:26;100866.81;;;3.70;100.00
62124;BME280;48110;47.532;19.078;2024-02-14T01:28:28;100861.97;;;3.76;100.00
62124;BME280;48110;47.532;19.078;2024-02-14T01:31:32;100864.97;;;3.83;100.00
62124;BME280;48110;47.532;19.078;2024-02-14T01:34:36;100863.59;;;3.66;100.00
62124;BME280;48110;47.532;19.078;2024-02-14T01:37:39;100860.72;;;3.69;100.00
62124;BME280;48110;47.532;19.078;2024-02-14T01:40:45;100867.09;;;3.54;100.00
62124;BME280;48110;47.532;19.078;2024-02-14T01:43:48;100863.16;;;3.48;100.00
62124;BME280;48110;47.532;19.078;2024-02-14T01:46:50;100864.84;;;3.37;100.00
62124;BME280;48110;47.532;19.078;2024-02-14T01:49:53;100868.09;;;3.40;100.00
62124;BME280;48110;47.532;19.078;2024-02-14T01:52:59;100867.87;;;3.43;100.00
62124;BME280;48110;47.532;19.078;2024-02-14T01:56:02;100865.78;;;3.48;100.00
62124;BME280;48110;47.532;19.078;2024-02-14T01:59:07;100862.41;;;3.46;100.00
62124;BME280;48110;47.532;19.078;2024-02-14T02:02:11;100872.91;;;3.46;100.00
62124;BME280;48110;47.532;19.078;2024-02-14T02:05:14;100875.62;;;3.45;100.00
62124;BME280;48110;47.532;19.078;2024-02-14T02:08:18;100875.28;;;3.49;100.00
62124;BME280;48110;47.532;19.078;2024-02-14T02:11:21;100880.53;;;3.49;100.00
62124;BME280;48110;47.532;19.078;2024-02-14T02:14:24;100877.81;;;3.51;100.00
62124;BME280;48110;47.532;19.078;2024-02-14T02:17:28;100879.34;;;3.54;100.00
62124;BME280;48110;47.532;19.078;2024-02-14T02:20:32;100876.31;;;3.60;100.00
62124;BME280;48110;47.532;19.078;2024-02-14T02:23:35;100882.38;;;3.60;100.00
62124;BME280;48110;47.532;19.078;2024-02-14T02:26:38;100891.19;;;3.59;100.00
62124;BME280;48110;47.532;19.078;2024-02-14T02:29:41;100889.47;;;3.47;100.00
62124;BME280;48110;47.532;19.078;2024-02-14T02:32:43;100884.94;;;3.49;100.00
62124;BME280;48110;47.532;19.078;2024-02-14T02:35:47;100889.25;;;3.50;100.00
62124;BME280;48110;47.532;19.078;2024-02-14T02:38:51;100888.34;;;3.38;100.00
62124;BME280;48110;47.532;19.078;2024-02-14T02:41:54;100886.94;;;3.09;100.00
62124;BME280;48110;47.532;19.078;2024-02-14T02:44:59;100882.66;;;2.95;100.00
62124;BME280;48110;47.532;19.078;2024-02-14T02:48:02;100881.00;;;2.82;100.00
62124;BME280;48110;47.532;19.078;2024-02-14T02:51:05;100893.28;;;2.69;100.00
62124;BME280;48110;47.532;19.078;2024-02-14T02:54:09;100897.78;;;2.54;100.00
62124;BME280;48110;47.532;19.078;2024-02-14T02:57:13;100907.00;;;2.47;100.00
62124;BME280;48110;47.532;19.078;2024-02-14T03:00:17;100897.03;;;2.39;100.00
62124;BME280;48110;47.532;19.078;2024-02-14T03:03:23;100898.97;;;2.23;100.00
62124;BME280;48110;47.532;19.078;2024-02-14T03:06:30;100908.50;;;2.11;100.00
62124;BME280;48110;47.532;19.078;2024-02-14T03:09:34;100910.88;;;2.02;100.00
62124;BME280;48110;47.532;19.078;2024-02-14T03:12:37;100913.44;;;1.89;100.00
62124;BME280;48110;47.532;19.078;2024-02-14T03:15:40;100920.03;;;1.82;100.00
62124;BME280;48110;47.532;19.078;2024-02-14T03:18:43;100930.97;;;1.74;100.00
62124;BME280;48110;47.532;19.078;2024-02-14T03:21:46;100939.22;;;1.68;100.00
62124;BME280;48110;47.532;19.078;2024-02-14T03:24:49;100940.84;;;1.84;100.00
62124;BME280;48110;47.532;19.078;2024-02-14T03:27:52;100940.84;;;1.84;100.00
62124;BME280;48110;47.532;19.078;2024-02-14T03:30:56;100943.53;;;2.09;100.00
62124;BME280;48110;47.532;19.078;2024-02-14T03:33:59;100942.69;;;2.08;100.00
62124;BME280;48110;47.532;19.078;2024-02-14T03:37:02;100949.06;;;2.04;100.00
62124;BME280;48110;47.532;19.078;2024-02-14T03:40:06;100946.72;;;2.66;100.00
62124;BME280;48110;47.532;19.078;2024-02-14T03:43:09;100956.75;;;2.59;100.00
62124;BME280;48110;47.532;19.078;2024-02-14T03:46:14;100953.53;;;2.56;100.00
62124;BME280;48110;47.532;19.078;2024-02-14T03:49:17;100951.78;;;2.42;100.00
62124;BME280;48110;47.532;19.078;2024-02-14T03:52:19;100966.34;;;2.34;100.00
62124;BME280;48110;47.532;19.078;2024-02-14T03:55:23;100966.00;;;2.26;100.00
62124;BME280;48110;47.532;19.078;2024-02-14T03:58:26;100969.81;;;2.34;100.00
62124;BME280;48110;47.532;19.078;2024-02-14T04:01:29;100971.69;;;2.32;100.00
62124;BME280;48110;47.532;19.078;2024-02-14T04:04:34;100980.41;;;2.45;100.00
62124;BME280;48110;47.532;19.078;2024-02-14T04:07:36;100975.97;;;2.33;100.00
62124;BME280;48110;47.532;19.078;2024-02-14T04:10:40;100989.41;;;2.14;100.00
62124;BME280;48110;47.532;19.078;2024-02-14T04:13:43;100994.31;;;2.06;100.00
62124;BME280;48110;47.532;19.078;2024-02-14T04:16:46;100990.06;;;2.18;100.00
62124;BME280;48110;47.532;19.078;2024-02-14T04:19:49;100996.28;;;2.30;100.00
62124;BME280;48110;47.532;19.078;2024-02-14T04:22:51;100994.28;;;2.21;100.00
62124;BME280;48110;47.532;19.078;2024-02-14T04:25:54;101008.62;;;2.01;100.00
62124;BME280;48110;47.532;19.078;2024-02-14T04:28:57;101014.66;;;1.89;100.00
62124;BME280;48110;47.532;19.078;2024-02-14T04:32:00;101017.28;;;1.74;100.00
62124;BME280;48110;47.532;19.078;2024-02-14T04:35:03;101013.19;;;1.56;100.00
62124;BME280;48110;47.532;19.078;2024-02-14T04:38:06;101016.81;;;1.82;100.00
62124;BME280;48110;47.532;19.078;2024-02-14T04:41:11;101018.81;;;2.05;100.00
62124;BME280;48110;47.532;19.078;2024-02-14T04:44:14;101016.47;;;1.74;100.00
62124;BME280;48110;47.532;19.078;2024-02-14T04:47:17;101016.66;;;1.57;100.00
62124;BME280;48110;47.532;19.078;2024-02-14T04:50:19;101026.19;;;1.44;100.00
62124;BME280;48110;47.532;19.078;2024-02-14T04:53:22;101025.00;;;1.35;100.00
62124;BME280;48110;47.532;19.078;2024-02-14T04:56:26;101030.94;;;1.23;100.00
62124;BME280;48110;47.532;19.078;2024-02-14T04:59:29;101030.66;;;1.13;100.00
62124;BME280;48110;47.532;19.078;2024-02-14T05:02:32;101026.63;;;1.08;100.00
62124;BME280;48110;47.532;19.078;2024-02-14T05:05:35;101039.88;;;0.91;100.00
62124;BME280;48110;47.532;19.078;2024-02-14T05:08:38;101037.41;;;0.87;100.00
62124;BME280;48110;47.532;19.078;2024-02-14T05:11:41;101034.66;;;1.05;100.00
62124;BME280;48110;47.532;19.078;2024-02-14T05:14:43;101034.66;;;1.05;100.00
62124;BME280;48110;47.532;19.078;2024-02-14T05:17:46;101047.25;;;0.98;100.00
62124;BME280;48110;47.532;19.078;2024-02-14T05:20:52;101044.75;;;0.97;100.00
62124;BME280;48110;47.532;19.078;2024-02-14T05:23:55;101044.06;;;0.93;100.00
62124;BME280;48110;47.532;19.078;2024-02-14T05:26:58;101044.44;;;0.87;100.00
62124;BME280;48110;47.532;19.078;2024-02-14T05:30:01;101049.91;;;0.82;100.00
62124;BME280;48110;47.532;19.078;2024-02-14T05:33:06;101057.09;;;0.79;100.00
62124;BME280;48110;47.532;19.078;2024-02-14T05:36:09;101055.59;;;0.75;100.00
62124;BME280;48110;47.532;19.078;2024-02-14T05:39:13;101065.66;;;0.67;100.00
62124;BME280;48110;47.532;19.078;2024-02-14T05:42:20;101067.31;;;0.68;100.00
62124;BME280;48110;47.532;19.078;2024-02-14T05:45:23;101078.19;;;0.60;100.00
62124;BME280;48110;47.532;19.078;2024-02-14T05:48:26;101078.47;;;0.56;100.00
62124;BME280;48110;47.532;19.078;2024-02-14T05:51:29;101070.87;;;0.51;100.00
62124;BME280;48110;47.532;19.078;2024-02-14T05:54:32;101081.34;;;0.51;100.00
62124;BME280;48110;47.532;19.078;2024-02-14T05:57:35;101081.56;;;0.92;100.00
62124;BME280;48110;47.532;19.078;2024-02-14T06:00:38;101087.03;;;0.87;100.00
62124;BME280;48110;47.532;19.078;2024-02-14T06:03:42;101095.41;;;0.78;100.00
62124;BME280;48110;47.532;19.078;2024-02-14T06:06:46;101091.50;;;0.71;100.00
62124;BME280;48110;47.532;19.078;2024-02-14T06:09:49;101091.84;;;0.65;100.00
62124;BME280;48110;47.532;19.078;2024-02-14T06:12:52;101098.09;;;0.63;100.00
62124;BME280;48110;47.532;19.078;2024-02-14T06:15:56;101107.69;;;0.62;100.00
62124;BME280;48110;47.532;19.078;2024-02-14T06:18:59;101105.22;;;0.59;100.00
62124;BME280;48110;47.532;19.078;2024-02-14T06:22:02;101106.00;;;0.61;100.00
62124;BME280;48110;47.532;19.078;2024-02-14T06:25:05;101114.47;;;0.65;100.00
62124;BME280;48110;47.532;19.078;2024-02-14T06:28:08;101110.09;;;0.65;100.00
62124;BME280;48110;47.532;19.078;2024-02-14T06:31:11;101106.47;;;0.68;100.00
62124;BME280;48110;47.532;19.078;2024-02-14T06:34:15;101105.38;;;0.72;100.00
62124;BME280;48110;47.532;19.078;2024-02-14T06:37:18;101105.13;;;0.76;100.00
62124;BME280;48110;47.532;19.078;2024-02-14T06:40:21;101116.88;;;0.83;100.00
62124;BME280;48110;47.532;19.078;2024-02-14T06:43:24;101117.47;;;0.88;100.00
62124;BME280;48110;47.532;19.078;2024-02-14T06:46:27;101117.03;;;0.96;100.00
62124;BME280;48110;47.532;19.078;2024-02-14T06:49:30;101123.59;;;1.03;100.00
62124;BME280;48110;47.532;19.078;2024-02-14T06:52:33;101124.91;;;1.10;100.00
62124;BME280;48110;47.532;19.078;2024-02-14T06:55:35;101127.91;;;1.18;100.00
62124;BME280;48110;47.532;19.078;2024-02-14T06:58:38;101129.06;;;1.28;100.00
62124;BME280;48110;47.532;19.078;2024-02-14T07:01:41;101131.97;;;1.38;100.00
62124;BME280;48110;47.532;19.078;2024-02-14T07:04:44;101133.31;;;1.45;100.00
62124;BME280;48110;47.532;19.078;2024-02-14T07:07:47;101137.03;;;1.55;100.00
62124;BME280;48110;47.532;19.078;2024-02-14T07:10:50;101133.69;;;1.67;100.00
62124;BME280;48110;47.532;19.078;2024-02-14T07:13:53;101143.38;;;1.80;100.00
62124;BME280;48110;47.532;19.078;2024-02-14T07:16:56;101143.78;;;1.88;100.00
62124;BME280;48110;47.532;19.078;2024-02-14T07:19:59;101145.06;;;1.95;100.00
62124;BME280;48110;47.532;19.078;2024-02-14T07:23:03;101145.34;;;2.04;100.00
62124;BME280;48110;47.532;19.078;2024-02-14T07:26:06;101145.53;;;2.15;100.00
62124;BME280;48110;47.532;19.078;2024-02-14T07:29:09;101143.66;;;2.32;100.00
62124;BME280;48110;47.532;19.078;2024-02-14T07:32:12;101141.44;;;2.52;100.00
62124;BME280;48110;47.532;19.078;2024-02-14T07:35:15;101139.47;;;2.83;100.00
62124;BME280;48110;47.532;19.078;2024-02-14T07:38:17;101138.78;;;3.06;100.00
62124;BME280;48110;47.532;19.078;2024-02-14T07:41:20;101156.44;;;3.17;100.00
62124;BME280;48110;47.532;19.078;2024-02-14T07:44:23;101154.19;;;3.50;100.00
62124;BME280;48110;47.532;19.078;2024-02-14T07:47:27;101149.34;;;3.69;100.00
62124;BME280;48110;47.532;19.078;2024-02-14T07:50:31;101156.91;;;3.74;100.00
62124;BME280;48110;47.532;19.078;2024-02-14T07:53:35;101150.41;;;3.92;100.00
62124;BME280;48110;47.532;19.078;2024-02-14T07:56:38;101156.16;;;4.10;100.00
62124;BME280;48110;47.532;19.078;2024-02-14T07:59:41;101157.09;;;4.09;100.00
62124;BME280;48110;47.532;19.078;2024-02-14T08:02:44;101145.09;;;4.30;100.00
62124;BME280;48110;47.532;19.078;2024-02-14T08:05:47;101152.78;;;4.57;100.00
62124;BME280;48110;47.532;19.078;2024-02-14T08:08:49;101156.19;;;4.70;100.00
62124;BME280;48110;47.532;19.078;2024-02-14T08:11:56;101157.66;;;4.74;100.00
62124;BME280;48110;47.532;19.078;2024-02-14T08:14:59;101157.25;;;4.91;100.00
62124;BME280;48110;47.532;19.078;2024-02-14T08:18:07;101169.37;;;5.29;100.00
62124;BME280;48110;47.532;19.078;2024-02-14T08:21:12;101172.13;;;6.62;100.00
62124;BME280;48110;47.532;19.078;2024-02-14T08:24:15;101172.69;;;8.52;100.00
62124;BME280;48110;47.532;19.078;2024-02-14T08:27:17;101170.78;;;8.64;90.82
62124;BME280;48110;47.532;19.078;2024-02-14T08:30:20;101167.75;;;9.55;82.31
62124;BME280;48110;47.532;19.078;2024-02-14T08:33:23;101177.94;;;10.16;75.08
62124;BME280;48110;47.532;19.078;2024-02-14T08:36:27;101176.66;;;12.48;65.95
62124;BME280;48110;47.532;19.078;2024-02-14T08:39:30;101179.94;;;13.00;57.05
62124;BME280;48110;47.532;19.078;2024-02-14T08:42:33;101181.66;;;13.42;54.34
62124;BME280;48110;47.532;19.078;2024-02-14T08:45:36;101179.44;;;11.61;57.84
62124;BME280;48110;47.532;19.078;2024-02-14T08:48:42;101174.31;;;9.22;67.35
62124;BME280;48110;47.532;19.078;2024-02-14T08:51:51;101181.34;;;8.64;67.68
62124;BME280;48110;47.532;19.078;2024-02-14T08:54:53;101174.31;;;8.34;69.47
62124;BME280;48110;47.532;19.078;2024-02-14T08:57:56;101176.94;;;7.53;72.88
62124;BME280;48110;47.532;19.078;2024-02-14T09:00:59;101169.41;;;7.48;73.56
62124;BME280;48110;47.532;19.078;2024-02-14T09:04:15;101171.06;;;7.49;78.17
62124;BME280;48110;47.532;19.078;2024-02-14T09:07:19;101172.31;;;7.45;80.42
62124;BME280;48110;47.532;19.078;2024-02-14T09:10:22;101171.97;;;7.38;82.30
62124;BME280;48110;47.532;19.078;2024-02-14T09:13:25;101174.91;;;7.24;86.62
62124;BME280;48110;47.532;19.078;2024-02-14T09:16:30;101171.06;;;6.96;91.86
62124;BME280;48110;47.532;19.078;2024-02-14T09:19:34;101168.50;;;6.74;97.82
62124;BME280;48110;47.532;19.078;2024-02-14T09:22:36;101169.91;;;6.78;97.84
62124;BME280;48110;47.532;19.078;2024-02-14T09:25:39;101171.28;;;6.73;96.83
62124;BME280;48110;47.532;19.078;2024-02-14T09:28:42;101162.06;;;6.67;95.79
62124;BME280;48110;47.532;19.078;2024-02-14T09:31:45;101163.69;;;6.68;92.28
62124;BME280;48110;47.532;19.078;2024-02-14T09:34:51;101164.31;;;6.72;87.90
62124;BME280;48110;47.532;19.078;2024-02-14T09:37:54;101164.06;;;6.64;84.43
62124;BME280;48110;47.532;19.078;2024-02-14T09:41:15;101161.47;;;6.52;81.75
62124;BME280;48110;47.532;19.078;2024-02-14T09:44:20;101159.28;;;6.69;85.59
62124;BME280;48110;47.532;19.078;2024-02-14T09:47:24;101153.16;;;6.68;86.37
62124;BME280;48110;47.532;19.078;2024-02-14T09:50:29;101161.16;;;6.78;85.13
62124;BME280;48110;47.532;19.078;2024-02-14T09:53:33;101160.00;;;6.71;83.97
62124;BME280;48110;47.532;19.078;2024-02-14T09:56:37;101158.59;;;6.87;83.73
62124;BME280;48110;47.532;19.078;2024-02-14T09:59:40;101163.06;;;6.87;83.54
62124;BME280;48110;47.532;19.078;2024-02-14T10:02:43;101156.50;;;6.81;80.08
62124;BME280;48110;47.532;19.078;2024-02-14T10:05:46;101151.81;;;6.85;79.40
62124;BME280;48110;47.532;19.078;2024-02-14T10:08:51;101155.28;;;6.85;76.15
62124;BME280;48110;47.532;19.078;2024-02-14T10:12:05;101158.34;;;7.02;74.19
62124;BME280;48110;47.532;19.078;2024-02-14T10:15:09;101153.59;;;7.16;70.59
62124;BME280;48110;47.532;19.078;2024-02-14T10:18:14;101157.91;;;7.17;70.18
62124;BME280;48110;47.532;19.078;2024-02-14T10:21:17;101146.56;;;7.26;70.87
62124;BME280;48110;47.532;19.078;2024-02-14T10:24:23;101144.78;;;7.48;71.39
62124;BME280;48110;47.532;19.078;2024-02-14T10:27:26;101148.22;;;7.38;70.43
62124;BME280;48110;47.532;19.078;2024-02-14T10:30:29;101144.84;;;7.36;72.54
62124;BME280;48110;47.532;19.078;2024-02-14T10:33:32;101133.72;;;7.33;70.44
62124;BME280;48110;47.532;19.078;2024-02-14T10:36:35;101140.56;;;7.35;70.49
62124;BME280;48110;47.532;19.078;2024-02-14T10:39:41;101144.91;;;7.46;69.79
62124;BME280;48110;47.532;19.078;2024-02-14T10:42:44;101140.28;;;7.59;70.40
62124;BME280;48110;47.532;19.078;2024-02-14T10:45:48;101139.22;;;7.71;71.27
62124;BME280;48110;47.532;19.078;2024-02-14T10:48:58;101139.19;;;7.62;71.66
62124;BME280;48110;47.532;19.078;2024-02-14T10:52:06;101129.34;;;7.64;71.86
62124;BME280;48110;47.532;19.078;2024-02-14T10:55:16;101120.63;;;7.73;71.05
62124;BME280;48110;47.532;19.078;2024-02-14T10:58:20;101121.59;;;7.72;71.54
62124;BME280;48110;47.532;19.078;2024-02-14T11:01:25;101114.22;;;7.75;71.68
62124;BME280;48110;47.532;19.078;2024-02-14T11:04:30;101107.63;;;7.91;71.97
62124;BME280;48110;47.532;19.078;2024-02-14T11:07:33;101111.72;;;8.04;73.25
62124;BME280;48110;47.532;19.078;2024-02-14T11:10:37;101105.88;;;8.01;72.23
62124;BME280;48110;47.532;19.078;2024-02-14T11:13:42;101104.63;;;8.05;72.90
62124;BME280;48110;47.532;19.078;2024-02-14T11:16:45;101095.19;;;8.12;71.16
62124;BME280;48110;47.532;19.078;2024-02-14T11:19:48;101101.78;;;8.27;72.91
62124;BME280;48110;47.532;19.078;2024-02-14T11:22:56;101103.72;;;8.25;72.61
62124;BME280;48110;47.532;19.078;2024-02-14T11:26:15;101096.56;;;8.46;71.10
62124;BME280;48110;47.532;19.078;2024-02-14T11:29:18;101098.22;;;8.47;69.93
62124;BME280;48110;47.532;19.078;2024-02-14T11:32:27;101095.47;;;8.78;69.56
62124;BME280;48110;47.532;19.078;2024-02-14T11:35:31;101090.78;;;9.56;66.28
62124;BME280;48110;47.532;19.078;2024-02-14T11:38:34;101096.09;;;11.96;58.22
62124;BME280;48110;47.532;19.078;2024-02-14T11:41:37;101095.38;;;14.76;50.17
62124;BME280;48110;47.532;19.078;2024-02-14T11:44:40;101099.03;;;16.67;44.31
62124;BME280;48110;47.532;19.078;2024-02-14T11:47:45;101092.06;;;16.01;43.23
62124;BME280;48110;47.532;19.078;2024-02-14T11:50:53;101093.25;;;16.64;41.40
62124;BME280;48110;47.532;19.078;2024-02-14T11:53:58;101092.59;;;16.47;40.99
62124;BME280;48110;47.532;19.078;2024-02-14T11:57:07;101093.97;;;17.43;40.44
62124;BME280;48110;47.532;19.078;2024-02-14T12:00:11;101091.13;;;18.67;37.71
62124;BME280;48110;47.532;19.078;2024-02-14T12:03:22;101089.91;;;17.53;37.04
62124;BME280;48110;47.532;19.078;2024-02-14T12:06:27;101081.41;;;18.12;35.66
62124;BME280;48110;47.532;19.078;2024-02-14T12:09:30;101081.94;;;17.38;37.20
62124;BME280;48110;47.532;19.078;2024-02-14T12:12:34;101080.38;;;18.54;35.52
62124;BME280;48110;47.532;19.078;2024-02-14T12:18:42;101086.16;;;17.20;36.33
62124;BME280;48110;47.532;19.078;2024-02-14T12:21:46;101074.37;;;15.10;39.76
62124;BME280;48110;47.532;19.078;2024-02-14T12:24:56;101073.72;;;14.71;41.05
62124;BME280;48110;47.532;19.078;2024-02-14T12:28:00;101073.09;;;15.06;40.53
62124;BME280;48110;47.532;19.078;2024-02-14T12:31:05;101060.25;;;13.23;44.30
62124;BME280;48110;47.532;19.078;2024-02-14T12:34:10;101063.41;;;12.94;44.43
62124;BME280;48110;47.532;19.078;2024-02-14T12:37:13;101061.34;;;12.40;45.93
62124;BME280;48110;47.532;19.078;2024-02-14T12:40:16;101062.84;;;12.34;47.06
62124;BME280;48110;47.532;19.078;2024-02-14T12:43:22;101063.84;;;11.91;47.43
62124;BME280;48110;47.532;19.078;2024-02-14T12:46:25;101054.34;;;11.55;49.57
62124;BME280;48110;47.532;19.078;2024-02-14T12:49:28;101051.63;;;11.47;49.59
62124;BME280;48110;47.532;19.078;2024-02-14T12:52:31;101052.84;;;11.26;49.96
62124;BME280;48110;47.532;19.078;2024-02-14T12:55:34;101045.47;;;11.20;50.01
62124;BME280;48110;47.532;19.078;2024-02-14T12:58:37;101050.50;;;11.06;51.92
62124;BME280;48110;47.532;19.078;2024-02-14T13:01:40;101049.38;;;11.08;52.12
62124;BME280;48110;47.532;19.078;2024-02-14T13:04:44;101035.97;;;10.92;53.05
62124;BME280;48110;47.532;19.078;2024-02-14T13:07:47;101040.31;;;10.58;54.33
62124;BME280;48110;47.532;19.078;2024-02-14T13:10:50;101038.66;;;10.74;55.35
62124;BME280;48110;47.532;19.078;2024-02-14T13:13:52;101042.59;;;10.88;55.89
62124;BME280;48110;47.532;19.078;2024-02-14T13:16:56;101031.50;;;10.75;56.32
62124;BME280;48110;47.532;19.078;2024-02-14T13:19:58;101030.37;;;10.77;57.10
62124;BME280;48110;47.532;19.078;2024-02-14T13:23:02;101032.50;;;10.38;58.72
62124;BME280;48110;47.532;19.078;2024-02-14T13:26:06;101035.34;;;10.55;58.09
62124;BME280;48110;47.532;19.078;2024-02-14T13:29:10;101039.06;;;10.17;60.36
62124;BME280;48110;47.532;19.078;2024-02-14T13:32:13;101041.66;;;10.26;61.78
62124;BME280;48110;47.532;19.078;2024-02-14T13:35:16;101041.06;;;10.05;62.45
62124;BME280;48110;47.532;19.078;2024-02-14T13:38:20;101036.94;;;9.93;63.80
62124;BME280;48110;47.532;19.078;2024-02-14T13:41:23;101044.88;;;9.93;64.52
62124;BME280;48110;47.532;19.078;2024-02-14T13:44:26;101042.28;;;9.83;66.33
62124;BME280;48110;47.532;19.078;2024-02-14T13:47:29;101039.34;;;9.86;67.23
62124;BME280;48110;47.532;19.078;2024-02-14T13:50:31;101036.84;;;9.85;68.04
62124;BME280;48110;47.532;19.078;2024-02-14T13:53:34;101041.00;;;9.60;70.37
62124;BME280;48110;47.532;19.078;2024-02-14T13:56:37;101031.69;;;9.83;70.69
62124;BME280;48110;47.532;19.078;2024-02-14T13:59:40;101033.13;;;9.78;72.14
62124;BME280;48110;47.532;19.078;2024-02-14T14:02:42;101042.28;;;9.83;72.16
62124;BME280;48110;47.532;19.078;2024-02-14T14:05:46;101040.59;;;9.92;72.62
62124;BME280;48110;47.532;19.078;2024-02-14T14:08:49;101038.91;;;9.91;72.21
62124;BME280;48110;47.532;19.078;2024-02-14T14:11:53;101044.56;;;9.69;72.41
62124;BME280;48110;47.532;19.078;2024-02-14T14:14:57;101040.94;;;9.42;74.83
62124;BME280;48110;47.532;19.078;2024-02-14T14:18:00;101047.53;;;9.66;75.27
62124;BME280;48110;47.532;19.078;2024-02-14T14:21:03;101036.53;;;9.60;75.51
62124;BME280;48110;47.532;19.078;2024-02-14T14:24:06;101043.78;;;9.68;73.79
62124;BME280;48110;47.532;19.078;2024-02-14T14:27:09;101040.19;;;9.50;74.31
62124;BME280;48110;47.532;19.078;2024-02-14T14:30:16;101040.09;;;9.42;75.24
62124;BME280;48110;47.532;19.078;2024-02-14T14:33:19;101036.09;;;9.28;74.63
62124;BME280;48110;47.532;19.078;2024-02-14T14:36:22;101045.41;;;9.32;74.89
62124;BME280;48110;47.532;19.078;2024-02-14T14:39:26;101040.78;;;9.44;75.52
62124;BME280;48110;47.532;19.078;2024-02-14T14:42:32;101038.75;;;9.28;76.13
62124;BME280;48110;47.532;19.078;2024-02-14T14:45:35;101035.75;;;9.41;75.27
62124;BME280;48110;47.532;19.078;2024-02-14T14:48:39;101032.06;;;9.24;74.99
62124;BME280;48110;47.532;19.078;2024-02-14T14:51:41;101032.19;;;9.23;76.52
62124;BME280;48110;47.532;19.078;2024-02-14T14:54:45;101037.06;;;9.27;77.00
62124;BME280;48110;47.532;19.078;2024-02-14T14:57:47;101032.75;;;9.26;75.88
62124;BME280;48110;47.532;19.078;2024-02-14T15:00:54;101036.09;;;9.28;76.42
62124;BME280;48110;47.532;19.078;2024-02-14T15:03:58;101045.44;;;9.23;77.75
62124;BME280;48110;47.532;19.078;2024-02-14T15:07:02;101033.16;;;9.22;78.70
62124;BME280;48110;47.532;19.078;2024-02-14T15:10:06;101040.97;;;9.23;77.77
62124;BME280;48110;47.532;19.078;2024-02-14T15:13:10;101038.16;;;9.25;78.25
62124;BME280;48110;47.532;19.078;2024-02-14T15:16:16;101041.69;;;9.15;80.14
62124;BME280;48110;47.532;19.078;2024-02-14T15:19:19;101040.94;;;9.33;80.98
62124;BME280;48110;47.532;19.078;2024-02-14T15:22:21;101040.66;;;9.36;78.60
62124;BME280;48110;47.532;19.078;2024-02-14T15:25:27;101042.91;;;9.31;79.03
62124;BME280;48110;47.532;19.078;2024-02-14T15:28:30;101045.53;;;9.31;80.27
62124;BME280;48110;47.532;19.078;2024-02-14T15:31:33;101054.06;;;9.34;78.07
62124;BME280;48110;47.532;19.078;2024-02-14T15:34:54;101062.25;;;9.41;81.00
62124;BME280;48110;47.532;19.078;2024-02-14T15:37:58;101061.88;;;9.16;81.48
62124;BME280;48110;47.532;19.078;2024-02-14T15:41:00;101063.84;;;9.14;83.95
62124;BME280;48110;47.532;19.078;2024-02-14T15:44:07;101059.53;;;9.04;86.90
62124;BME280;48110;47.532;19.078;2024-02-14T15:47:10;101056.63;;;8.97;86.98
62124;BME280;48110;47.532;19.078;2024-02-14T15:50:13;101065.28;;;8.90;90.38
62124;BME280;48110;47.532;19.078;2024-02-14T15:53:16;101063.59;;;8.89;90.80
62124;BME280;48110;47.532;19.078;2024-02-14T15:56:19;101053.84;;;8.80;95.01